Time;durP1;ratioP1;P1;durP2;ratioP2;P2;SDS_P1;SDS_P2;PMS_P1;PMS_P2;Temp;Humidity;BMP_temperature;BMP_pressure;BME280_temperature;BME280_humidity;BME280_pressure;Samples;Min_cycle;Max_cycle;Signal;HPM_P1;HPM_P2
2022/04/08 00:00:04;;;;;;;10.57;2.33;;;;;;;6.78;92.75;94360.59;5020134;28;24436;-75
2022/04/08 00:02:31;;;;;;;8.25;2.30;;;;;;;6.76;93.53;94357.34;5032017;28;24416;-75
2022/04/08 00:04:58;;;;;;;5.72;2.38;;;;;;;6.73;94.36;94370.41;5031951;28;24436;-75
2022/04/08 00:07:24;;;;;;;9.70;2.45;;;;;;;6.71;93.93;94362.81;5031878;28;24440;-75
2022/04/08 00:09:51;;;;;;;9.45;2.55;;;;;;;6.73;92.78;94366.06;5032115;28;24428;-75
2022/04/08 00:12:17;;;;;;;9.70;2.53;;;;;;;6.71;93.38;94361.97;5030359;28;24460;-75
2022/04/08 00:14:44;;;;;;;5.90;2.00;;;;;;;6.67;92.02;94370.81;5031578;28;25015;-77
2022/04/08 00:17:10;;;;;;;6.57;2.13;;;;;;;6.67;91.85;94365.69;5031787;28;24837;-75
2022/04/08 00:19:38;;;;;;;5.22;2.10;;;;;;;6.65;90.64;94362.41;5031626;28;24439;-75
2022/04/08 00:22:05;;;;;;;5.88;1.92;;;;;;;6.59;92.07;94373.94;5031603;28;24820;-75
2022/04/08 00:24:32;;;;;;;5.93;1.87;;;;;;;6.63;90.63;94377.13;5031437;28;24552;-75
2022/04/08 00:26:58;;;;;;;7.63;2.03;;;;;;;6.55;92.76;94370.75;5031593;28;24420;-75
2022/04/08 00:29:25;;;;;;;5.40;2.10;;;;;;;6.58;90.93;94376.63;5031870;28;24470;-75
2022/04/08 00:31:57;;;;;;;7.75;2.10;;;;;;;6.56;90.89;94384.44;5031247;28;24510;-75
2022/04/08 00:34:24;;;;;;;6.13;1.83;;;;;;;6.50;90.85;94385.69;5031383;28;24963;-74
2022/04/08 00:36:53;;;;;;;6.70;1.75;;;;;;;6.54;88.97;94384.53;5031331;28;24448;-76
2022/04/08 00:39:19;;;;;;;7.50;2.00;;;;;;;6.50;89.60;94390.00;5031437;28;24463;-75
2022/04/08 00:41:46;;;;;;;4.00;1.57;;;;;;;6.52;89.63;94388.97;5031091;28;24473;-75
2022/04/08 00:44:12;;;;;;;8.88;1.95;;;;;;;6.50;89.58;94380.53;5022496;28;25194;-75
2022/04/08 00:46:39;;;;;;;7.05;2.13;;;;;;;6.51;90.18;94391.66;5031153;28;24427;-75
2022/04/08 00:49:06;;;;;;;5.80;2.20;;;;;;;6.54;88.92;94396.59;5031281;28;24881;-75
2022/04/08 00:51:34;;;;;;;7.65;2.25;;;;;;;6.51;89.70;94387.31;5030607;28;25031;-77
2022/04/08 00:54:03;;;;;;;5.38;2.00;;;;;;;6.45;90.81;94392.91;5031162;28;24436;-76
2022/04/08 00:56:30;;;;;;;8.50;1.88;;;;;;;6.45;91.57;94399.78;5031195;28;24499;-77
2022/04/08 00:58:58;;;;;;;6.53;2.22;;;;;;;6.40;92.30;94399.28;5031138;28;24450;-76
2022/04/08 01:01:25;;;;;;;8.80;2.03;;;;;;;6.37;92.92;94394.34;5014638;28;24440;-75
2022/04/08 01:03:52;;;;;;;11.82;2.22;;;;;;;6.39;93.05;94400.22;5031133;28;24459;-76
2022/04/08 01:06:19;;;;;;;5.10;1.92;;;;;;;6.39;92.96;94393.31;5031265;28;24432;-75
2022/04/08 01:08:46;;;;;;;5.10;1.90;;;;;;;6.39;92.01;94401.03;5031002;28;24435;-77
2022/04/08 01:11:13;;;;;;;4.22;1.67;;;;;;;6.40;92.28;94401.84;5030256;28;24885;-75
2022/04/08 01:13:40;;;;;;;6.03;1.80;;;;;;;6.43;88.18;94406.78;5030572;28;24998;-75
2022/04/08 01:16:07;;;;;;;10.10;1.98;;;;;;;6.44;87.85;94403.28;5030945;28;24440;-74
2022/04/08 01:18:33;;;;;;;8.65;1.60;;;;;;;6.40;87.91;94405.25;5031150;28;24924;-75
2022/04/08 01:21:03;;;;;;;6.55;1.73;;;;;;;6.41;88.41;94406.88;5030630;28;24443;-76
2022/04/08 01:23:30;;;;;;;6.90;1.92;;;;;;;6.40;87.84;94414.72;5030400;28;24949;-75
2022/04/08 01:25:58;;;;;;;4.60;1.60;;;;;;;6.34;87.82;94418.53;5025011;28;24435;-75
2022/04/08 01:28:27;;;;;;;4.65;1.77;;;;;;;6.33;86.90;94434.06;5030883;28;24486;-75
2022/04/08 01:30:55;;;;;;;8.82;1.90;;;;;;;6.29;87.57;94430.84;5030422;28;24447;-75
2022/04/08 01:33:21;;;;;;;6.22;2.00;;;;;;;6.24;88.33;94412.34;5030318;28;24988;-75
2022/04/08 01:35:48;;;;;;;4.50;1.60;;;;;;;6.22;89.34;94421.91;5030670;28;24448;-75
2022/04/08 01:38:14;;;;;;;5.03;2.00;;;;;;;6.21;90.64;94435.69;5030612;28;24527;-75
2022/04/08 01:40:42;;;;;;;9.63;1.80;;;;;;;6.15;90.82;94436.91;5030295;28;24798;-75
2022/04/08 01:43:09;;;;;;;6.55;1.88;;;;;;;6.22;88.59;94439.91;5030571;28;24506;-75
2022/04/08 01:45:36;;;;;;;9.13;2.00;;;;;;;6.18;90.20;94434.16;5030493;28;24486;-75
2022/04/08 01:48:03;;;;;;;7.13;1.95;;;;;;;6.22;89.99;94429.63;5030146;28;24447;-76
2022/04/08 01:50:29;;;;;;;5.75;1.70;;;;;;;6.16;90.77;94430.06;5030000;28;24984;-74
2022/04/08 01:52:56;;;;;;;7.18;2.10;;;;;;;6.08;92.19;94433.09;5030135;28;24456;-74
2022/04/08 01:55:22;;;;;;;4.20;1.70;;;;;;;5.99;93.55;94431.16;5030377;28;24443;-74
2022/04/08 01:57:49;;;;;;;6.10;1.70;;;;;;;5.99;94.06;94437.13;5014291;28;25000;-76
2022/04/08 02:00:17;;;;;;;5.82;2.15;;;;;;;5.98;94.31;94434.66;5030201;28;24432;-75
2022/04/08 02:02:44;;;;;;;6.35;1.80;;;;;;;5.98;94.05;94432.09;5030540;28;24420;-75
2022/04/08 02:05:10;;;;;;;6.93;1.77;;;;;;;5.92;94.70;94432.47;5030325;28;24443;-74
2022/04/08 02:07:37;;;;;;;5.23;1.70;;;;;;;5.95;94.65;94434.88;5030286;28;24527;-74
2022/04/08 02:10:04;;;;;;;8.47;2.20;;;;;;;5.96;93.33;94429.59;5030115;28;25028;-75
2022/04/08 02:12:30;;;;;;;9.82;1.90;;;;;;;5.92;93.29;94430.75;5030195;28;24460;-75
2022/04/08 02:14:57;;;;;;;7.85;1.90;;;;;;;5.85;93.98;94429.47;5030374;28;24436;-74
2022/04/08 02:17:25;;;;;;;5.65;1.85;;;;;;;5.93;91.57;94429.00;5030021;28;25058;-75
2022/04/08 02:19:52;;;;;;;5.10;1.75;;;;;;;5.89;91.04;94435.22;5030128;28;24853;-75
2022/04/08 02:22:18;;;;;;;7.60;2.00;;;;;;;5.83;91.03;94432.16;5029828;28;24443;-74
2022/04/08 02:24:46;;;;;;;5.95;1.80;;;;;;;5.81;89.93;94433.16;5029835;28;24957;-74
2022/04/08 02:27:13;;;;;;;6.28;1.90;;;;;;;5.83;88.80;94444.16;5030090;28;24494;-74
2022/04/08 02:29:39;;;;;;;6.55;1.80;;;;;;;5.79;90.03;94445.28;5030342;28;24803;-74
2022/04/08 02:32:07;;;;;;;5.43;1.70;;;;;;;5.76;90.14;94441.16;5029417;28;24471;-76
2022/04/08 02:34:36;;;;;;;6.70;1.80;;;;;;;5.72;89.95;94444.88;5030024;28;24440;-74
2022/04/08 02:37:03;;;;;;;4.75;1.52;;;;;;;5.68;89.86;94438.28;5032777;28;24451;-74
2022/04/08 02:39:30;;;;;;;4.82;1.65;;;;;;;5.63;90.00;94460.03;5019538;28;24858;-75
2022/04/08 02:41:57;;;;;;;5.53;1.52;;;;;;;5.64;88.36;94456.56;5031041;28;24451;-75
2022/04/08 02:44:23;;;;;;;5.97;1.95;;;;;;;5.66;87.62;94454.72;5033515;28;24444;-74
2022/04/08 02:46:50;;;;;;;5.72;1.63;;;;;;;5.59;88.10;94460.22;5013790;28;24432;-74
2022/04/08 02:49:16;;;;;;;5.93;1.85;;;;;;;5.57;87.38;94463.84;5025491;28;24992;-74
2022/04/08 02:51:44;;;;;;;5.68;1.65;;;;;;;5.53;89.00;94470.09;5032989;28;24439;-75
2022/04/08 02:54:13;;;;;;;7.43;1.88;;;;;;;5.46;88.15;94464.53;5032952;28;24809;-75
2022/04/08 02:56:41;;;;;;;4.78;1.70;;;;;;;5.44;88.37;94471.47;5033032;28;24977;-75
2022/04/08 02:59:07;;;;;;;5.43;1.48;;;;;;;5.45;88.88;94490.28;5032889;28;24440;-75
2022/04/08 03:01:33;;;;;;;7.63;1.92;;;;;;;5.40;88.80;94500.84;5033082;28;24443;-75
2022/04/08 03:04:00;;;;;;;10.30;1.83;;;;;;;5.37;88.29;94480.50;5033140;28;24550;-75
2022/04/08 03:06:27;;;;;;;4.85;1.50;;;;;;;5.36;87.82;94478.84;5033177;28;24494;-75
2022/04/08 03:08:54;;;;;;;6.18;1.75;;;;;;;5.40;87.78;94475.16;5032903;28;24439;-75
2022/04/08 03:11:21;;;;;;;8.60;1.92;;;;;;;5.33;87.25;94482.44;5032580;28;25096;-76
2022/04/08 03:13:48;;;;;;;7.55;2.20;;;;;;;5.38;87.03;94492.44;5033040;28;24452;-75
2022/04/08 03:16:14;;;;;;;6.65;1.83;;;;;;;5.45;87.09;94495.41;5032992;28;24447;-75
2022/04/08 03:18:41;;;;;;;7.50;1.83;;;;;;;5.40;87.04;94516.25;5032988;28;24444;-75
2022/04/08 03:21:08;;;;;;;12.00;2.33;;;;;;;5.45;86.82;94510.81;5032736;28;24435;-75
2022/04/08 03:23:34;;;;;;;8.87;2.07;;;;;;;5.52;84.96;94509.50;5032876;28;24432;-75
2022/04/08 03:26:02;;;;;;;8.15;1.80;;;;;;;5.46;84.08;94510.75;5032851;28;24416;-75
2022/04/08 03:28:31;;;;;;;7.05;1.50;;;;;;;5.38;84.29;94515.53;5032707;28;24440;-75
2022/04/08 03:30:57;;;;;;;6.90;2.00;;;;;;;5.39;84.13;94496.63;5032526;28;24502;-75
2022/04/08 03:33:23;;;;;;;8.05;2.25;;;;;;;5.40;84.35;94500.84;5032708;28;24460;-76
2022/04/08 03:35:50;;;;;;;9.35;2.38;;;;;;;5.36;85.91;94501.97;5032622;28;24459;-76
2022/04/08 03:38:16;;;;;;;9.90;2.30;;;;;;;5.32;86.31;94503.06;5032599;28;24470;-75
2022/04/08 03:40:43;;;;;;;5.28;1.80;;;;;;;5.31;86.74;94491.16;5032498;28;24424;-75
2022/04/08 03:43:11;;;;;;;11.85;2.30;;;;;;;5.37;86.91;94492.50;5032491;28;24459;-75
2022/04/08 03:45:37;;;;;;;6.20;1.97;;;;;;;5.33;88.04;94509.84;5032626;28;24798;-75
2022/04/08 03:48:04;;;;;;;7.85;2.10;;;;;;;5.33;88.59;94540.66;5031935;28;25170;-75
2022/04/08 03:50:30;;;;;;;6.93;1.88;;;;;;;5.36;88.34;94526.81;5032254;28;24497;-75
2022/04/08 03:52:57;;;;;;;7.28;1.95;;;;;;;5.43;87.83;94530.66;5031877;28;25039;-75
2022/04/08 03:55:23;;;;;;;7.95;2.05;;;;;;;5.51;87.69;94518.97;5032197;28;24459;-75
2022/04/08 03:57:50;;;;;;;11.45;2.20;;;;;;;5.42;88.73;94524.69;5032458;28;24478;-75
2022/04/08 04:00:18;;;;;;;8.15;1.75;;;;;;;5.45;88.83;94526.22;5031882;28;24436;-75
2022/04/08 04:02:44;;;;;;;8.43;2.00;;;;;;;5.49;88.91;94531.09;5031975;28;25093;-78
2022/04/08 04:05:11;;;;;;;8.48;1.88;;;;;;;5.50;88.49;94530.16;5031981;28;24458;-76
2022/04/08 04:07:38;;;;;;;4.97;1.83;;;;;;;5.49;89.20;94535.41;5032087;28;24494;-75
2022/04/08 04:10:05;;;;;;;6.00;1.73;;;;;;;5.58;88.45;94542.53;5032004;28;24447;-80
2022/04/08 04:12:32;;;;;;;3.92;1.58;;;;;;;5.59;88.98;94542.41;5031996;28;24471;-73
2022/04/08 04:14:58;;;;;;;6.63;1.77;;;;;;;5.62;88.45;94535.44;5032630;28;24953;-73
2022/04/08 04:17:28;;;;;;;13.68;1.90;;;;;;;5.66;88.40;94534.34;5032052;28;24550;-73
2022/04/08 04:19:54;;;;;;;7.28;2.13;;;;;;;5.67;88.99;94544.50;5032218;28;24495;-73
2022/04/08 04:22:20;;;;;;;5.10;1.75;;;;;;;5.73;90.37;94538.97;5031698;28;24438;-74
2022/04/08 04:24:47;;;;;;;3.67;1.77;;;;;;;5.82;89.60;94537.56;5031977;28;24519;-77
2022/04/08 04:27:13;;;;;;;6.22;1.65;;;;;;;5.79;89.05;94527.50;5031221;28;24467;-75
2022/04/08 04:29:40;;;;;;;5.00;1.70;;;;;;;5.85;89.37;94523.72;5033876;28;24443;-76
2022/04/08 04:32:07;;;;;;;9.13;1.52;;;;;;;5.91;89.88;94528.47;5023718;28;24499;-76
2022/04/08 04:34:36;;;;;;;3.67;1.48;;;;;;;5.83;89.69;94534.09;5013288;28;24492;-74
2022/04/08 04:37:03;;;;;;;5.53;1.48;;;;;;;5.87;88.37;94527.84;5030903;28;24442;-74
2022/04/08 04:39:30;;;;;;;5.45;1.77;;;;;;;5.71;87.16;94529.72;5031422;28;24432;-75
2022/04/08 04:41:56;;;;;;;10.25;2.30;;;;;;;5.76;87.60;94531.09;5030867;28;24482;-75
2022/04/08 04:44:24;;;;;;;4.35;1.65;;;;;;;5.76;87.12;94530.28;5031238;28;24440;-76
2022/04/08 04:46:51;;;;;;;6.30;1.98;;;;;;;5.62;88.44;94533.69;5014775;28;24439;-75
2022/04/08 04:49:17;;;;;;;3.38;1.40;;;;;;;5.74;89.36;94529.53;5030904;28;24497;-76
2022/04/08 04:51:45;;;;;;;7.03;1.90;;;;;;;5.75;89.60;94526.88;5030306;28;24443;-76
2022/04/08 04:54:11;;;;;;;6.03;1.52;;;;;;;5.72;88.66;94528.81;5030907;28;24454;-74
2022/04/08 04:56:38;;;;;;;10.50;1.98;;;;;;;5.75;89.03;94523.50;5030494;28;24566;-75
2022/04/08 04:59:04;;;;;;;7.05;2.03;;;;;;;5.70;89.67;94523.75;5025530;28;24850;-74
2022/04/08 05:01:31;;;;;;;4.05;1.50;;;;;;;5.73;90.03;94515.03;5018824;28;24451;-74
2022/04/08 05:03:57;;;;;;;10.35;2.20;;;;;;;5.68;89.98;94520.47;5030613;28;24415;-72
2022/04/08 05:06:24;;;;;;;4.38;2.13;;;;;;;5.69;90.49;94529.00;5037707;23;24471;-75
2022/04/08 05:08:52;;;;;;;8.07;2.13;;;;;;;5.67;90.85;94528.28;5028966;28;24892;-75
2022/04/08 05:11:18;;;;;;;7.53;2.08;;;;;;;5.72;91.19;94518.53;5028151;28;24490;-77
2022/04/08 05:13:45;;;;;;;4.93;1.88;;;;;;;5.75;91.66;94520.91;5028967;28;24462;-75
2022/04/08 05:16:11;;;;;;;5.53;1.70;;;;;;;5.69;92.28;94526.44;5021145;28;24865;-71
2022/04/08 05:18:39;;;;;;;5.07;2.17;;;;;;;5.66;92.54;94526.63;5009075;28;24439;-74
2022/04/08 05:21:05;;;;;;;5.37;2.10;;;;;;;5.64;92.31;94528.50;5009086;28;24424;-75
2022/04/08 05:23:33;;;;;;;6.47;2.40;;;;;;;5.64;91.54;94544.72;5009656;28;24447;-74
2022/04/08 05:26:01;;;;;;;5.40;2.15;;;;;;;5.58;93.40;94542.53;5009679;28;24441;-74
2022/04/08 05:28:28;;;;;;;4.07;1.77;;;;;;;5.56;93.23;94546.91;5010442;28;24436;-74
2022/04/08 05:30:54;;;;;;;7.70;2.10;;;;;;;5.49;95.68;94550.81;5010099;28;24483;-74
2022/04/08 05:33:21;;;;;;;9.82;1.60;;;;;;;5.55;95.40;94540.97;5010377;28;24463;-76
2022/04/08 05:35:47;;;;;;;6.07;1.83;;;;;;;5.54;97.09;94543.63;5009295;28;24981;-75
2022/04/08 05:38:14;;;;;;;5.85;1.63;;;;;;;5.54;98.83;94546.22;5010584;28;24461;-75
2022/04/08 05:40:41;;;;;;;6.22;1.48;;;;;;;5.40;99.48;94552.19;5010478;28;24436;-75
2022/04/08 05:43:09;;;;;;;6.18;2.00;;;;;;;5.32;100.00;94550.09;5010628;28;24433;-75
2022/04/08 05:45:36;;;;;;;6.57;2.13;;;;;;;5.33;100.00;94545.78;5010004;28;24448;-75
2022/04/08 05:48:04;;;;;;;5.03;2.13;;;;;;;5.32;100.00;94544.97;5010727;28;24495;-75
2022/04/08 05:50:30;;;;;;;5.47;1.70;;;;;;;5.36;100.00;94544.78;5010628;28;24463;-74
2022/04/08 05:52:57;;;;;;;4.07;1.40;;;;;;;5.46;100.00;94543.31;5010151;28;24456;-74
2022/04/08 05:55:24;;;;;;;5.70;1.70;;;;;;;5.33;100.00;94544.03;5010586;28;24850;-75
2022/04/08 05:57:53;;;;;;;5.10;1.67;;;;;;;5.39;100.00;94542.84;5010186;28;24436;-75
2022/04/08 06:00:21;;;;;;;4.43;1.67;;;;;;;5.47;100.00;94545.75;5010353;28;24475;-75
2022/04/08 06:02:48;;;;;;;9.27;2.03;;;;;;;5.34;100.00;94550.03;5002383;28;24507;-76
2022/04/08 06:05:18;;;;;;;6.95;2.08;;;;;;;5.30;100.00;94543.41;5010403;28;24441;-74
2022/04/08 06:07:46;;;;;;;5.25;1.63;;;;;;;5.20;100.00;94545.72;5010384;28;24987;-74
2022/04/08 06:10:13;;;;;;;5.07;1.90;;;;;;;5.12;100.00;94547.09;5010451;28;24519;-75
2022/04/08 06:12:40;;;;;;;8.18;2.20;;;;;;;5.01;100.00;94542.63;5014250;28;24425;-74
2022/04/08 06:15:08;;;;;;;5.68;1.83;;;;;;;4.90;100.00;94547.59;5013920;28;25004;-75
2022/04/08 06:17:39;;;;;;;4.50;1.30;;;;;;;4.82;100.00;94548.88;5014215;28;24428;-74
2022/04/08 06:20:06;;;;;;;3.03;1.20;;;;;;;4.70;100.00;94549.59;5014205;28;24425;-75
2022/04/08 06:22:33;;;;;;;4.15;1.75;;;;;;;4.64;100.00;94539.72;5013763;28;24444;-74
2022/04/08 06:24:59;;;;;;;3.42;1.40;;;;;;;4.52;100.00;94536.09;5013816;28;24854;-74
2022/04/08 06:27:26;;;;;;;4.13;1.27;;;;;;;4.53;100.00;94532.66;5013639;28;24954;-74
2022/04/08 06:29:52;;;;;;;6.28;1.40;;;;;;;4.49;100.00;94532.94;5014106;28;24439;-75
2022/04/08 06:32:19;;;;;;;6.15;1.83;;;;;;;4.56;100.00;94544.44;5013796;28;24432;-74
2022/04/08 06:34:47;;;;;;;4.50;1.48;;;;;;;4.58;100.00;94527.25;5014054;28;24451;-75
2022/04/08 06:37:13;;;;;;;5.63;1.10;;;;;;;4.62;100.00;94526.13;5013946;28;24448;-74
2022/04/08 06:39:40;;;;;;;3.45;1.33;;;;;;;4.64;100.00;94531.19;5014141;28;24464;-75
2022/04/08 06:42:07;;;;;;;3.17;1.00;;;;;;;4.59;100.00;94529.69;5013871;28;24444;-75
2022/04/08 06:44:33;;;;;;;6.40;1.90;;;;;;;4.52;100.00;94527.59;5013758;28;24432;-75
2022/04/08 06:47:00;;;;;;;4.20;1.50;;;;;;;4.48;100.00;94528.69;5019553;28;24444;-74
2022/04/08 06:49:26;;;;;;;4.40;1.38;;;;;;;4.50;100.00;94520.00;5013814;28;24432;-74
2022/04/08 06:51:58;;;;;;;4.95;1.33;;;;;;;4.50;100.00;94527.69;5013579;28;24487;-74
2022/04/08 06:54:24;;;;;;;5.85;1.30;;;;;;;4.43;100.00;94516.16;5013849;28;24875;-75
2022/04/08 06:56:51;;;;;;;6.65;1.45;;;;;;;4.46;100.00;94515.97;5013098;28;24827;-75
2022/04/08 06:59:17;;;;;;;5.07;1.42;;;;;;;4.42;100.00;94522.19;5012771;28;24498;-74
2022/04/08 07:01:44;;;;;;;3.20;1.08;;;;;;;4.44;100.00;94515.22;5008741;28;24440;-73
2022/04/08 07:04:10;;;;;;;3.92;1.30;;;;;;;4.51;100.00;94505.44;5013806;28;24416;-75
2022/04/08 07:06:37;;;;;;;4.53;1.02;;;;;;;4.57;100.00;94490.53;5013257;28;24798;-75
2022/04/08 07:09:05;;;;;;;5.15;0.95;;;;;;;4.65;100.00;94497.75;5013125;28;24996;-74
2022/04/08 07:11:31;;;;;;;2.15;1.10;;;;;;;4.80;100.00;94490.88;5013175;28;24538;-74
2022/04/08 07:13:58;;;;;;;2.33;1.20;;;;;;;4.83;100.00;94488.13;5012886;28;24857;-74
2022/04/08 07:16:24;;;;;;;4.73;1.17;;;;;;;4.82;100.00;94482.19;5012788;28;24444;-74
2022/04/08 07:18:50;;;;;;;3.33;1.00;;;;;;;4.74;100.00;94470.72;5013077;28;24444;-74
2022/04/08 07:21:17;;;;;;;7.43;1.40;;;;;;;4.63;100.00;94475.69;5012728;28;24466;-74
2022/04/08 07:23:44;;;;;;;4.05;1.10;;;;;;;4.47;100.00;94473.22;5012912;28;24427;-74
2022/04/08 07:26:12;;;;;;;3.28;0.95;;;;;;;4.41;100.00;94465.88;5012962;28;24518;-75
2022/04/08 07:28:38;;;;;;;2.58;0.90;;;;;;;4.38;100.00;94471.22;5013027;28;24436;-75
2022/04/08 07:31:05;;;;;;;2.67;1.10;;;;;;;4.38;100.00;94464.34;5012665;28;24854;-74
2022/04/08 07:33:31;;;;;;;4.37;1.20;;;;;;;4.43;100.00;94456.38;5012737;28;24460;-74
2022/04/08 07:35:58;;;;;;;2.07;0.77;;;;;;;4.46;100.00;94464.69;5012474;28;25105;-74
2022/04/08 07:38:25;;;;;;;2.47;0.80;;;;;;;4.56;100.00;94450.41;5012600;28;25074;-75
2022/04/08 07:40:52;;;;;;;3.33;1.47;;;;;;;4.54;100.00;94443.72;5013197;28;24443;-75
2022/04/08 07:43:19;;;;;;;3.88;1.65;;;;;;;4.57;100.00;94435.84;5010884;28;24510;-75
2022/04/08 07:45:46;;;;;;;3.80;0.90;;;;;;;4.60;100.00;94433.94;5011605;28;24448;-74
2022/04/08 07:48:12;;;;;;;2.90;1.42;;;;;;;4.67;100.00;94433.53;5011063;28;25030;-75
2022/04/08 07:50:40;;;;;;;2.65;1.30;;;;;;;4.81;100.00;94430.97;5010300;28;24455;-75
2022/04/08 07:53:06;;;;;;;4.13;1.38;;;;;;;4.81;100.00;94433.53;5011231;28;24494;-74
2022/04/08 07:55:33;;;;;;;3.33;1.90;;;;;;;4.96;100.00;94414.59;5008161;28;24814;-75
2022/04/08 07:57:59;;;;;;;11.73;2.60;;;;;;;4.92;100.00;94412.34;5011203;28;24471;-75
2022/04/08 08:00:29;;;;;;;4.53;1.70;;;;;;;4.95;100.00;94415.53;5010657;28;24477;-75
2022/04/08 08:02:56;;;;;;;4.25;1.52;;;;;;;4.98;100.00;94407.66;5010900;28;24443;-73
2022/04/08 08:05:23;;;;;;;5.15;1.50;;;;;;;4.99;100.00;94411.03;5010307;28;24997;-75
2022/04/08 08:07:51;;;;;;;1.35;0.93;;;;;;;5.19;100.00;94413.19;5010878;28;24432;-75
2022/04/08 08:10:19;;;;;;;1.70;0.90;;;;;;;4.91;100.00;94400.44;5010563;28;24495;-76
2022/04/08 08:12:46;;;;;;;0.95;0.73;;;;;;;4.87;100.00;94401.56;5011238;28;24463;-74
2022/04/08 08:15:13;;;;;;;2.63;0.90;;;;;;;4.79;100.00;94391.78;5010753;28;24480;-74
2022/04/08 08:17:40;;;;;;;4.82;1.10;;;;;;;4.95;100.00;94387.31;5011578;28;24808;-74
2022/04/08 08:20:09;;;;;;;4.82;1.25;;;;;;;5.15;100.00;94387.78;5012082;28;24423;-74
2022/04/08 08:22:35;;;;;;;2.58;0.98;;;;;;;5.27;100.00;94387.03;5011980;28;24420;-74
2022/04/08 08:25:03;;;;;;;2.17;1.00;;;;;;;5.09;100.00;94383.88;5010732;28;24989;-75
2022/04/08 08:27:29;;;;;;;2.30;1.00;;;;;;;5.20;100.00;94378.06;5011805;28;24443;-74
2022/04/08 08:29:56;;;;;;;1.42;1.00;;;;;;;5.29;100.00;94374.91;5011910;28;24478;-74
2022/04/08 08:32:22;;;;;;;1.73;0.70;;;;;;;5.20;100.00;94381.47;5011437;28;24962;-75
2022/04/08 08:34:50;;;;;;;1.58;0.60;;;;;;;5.08;100.00;94370.25;5011088;28;24444;-74
2022/04/08 08:37:17;;;;;;;2.17;0.90;;;;;;;5.26;100.00;94363.09;5010732;28;24444;-75
2022/04/08 08:39:43;;;;;;;1.50;0.90;;;;;;;5.48;100.00;94361.69;5011380;28;24448;-74
2022/04/08 08:42:10;;;;;;;1.10;0.70;;;;;;;5.47;100.00;94358.31;5011436;28;24503;-74
2022/04/08 08:44:36;;;;;;;1.47;0.70;;;;;;;5.49;100.00;94361.63;5011681;28;24420;-75
2022/04/08 08:47:05;;;;;;;1.10;0.60;;;;;;;5.69;100.00;94355.16;5011525;28;24524;-75
2022/04/08 08:49:32;;;;;;;1.20;0.80;;;;;;;5.58;100.00;94352.47;5011725;28;24436;-75
2022/04/08 08:52:01;;;;;;;1.65;1.08;;;;;;;5.64;100.00;94352.06;5011960;28;24460;-75
2022/04/08 08:54:27;;;;;;;1.50;0.90;;;;;;;5.59;100.00;94347.22;5011858;28;24479;-74
2022/04/08 08:56:54;;;;;;;1.08;0.63;;;;;;;5.57;100.00;94346.53;5011153;28;24953;-75
2022/04/08 08:59:20;;;;;;;3.42;0.93;;;;;;;5.41;100.00;94338.16;5011126;28;24440;-74
2022/04/08 09:01:49;;;;;;;2.38;1.08;;;;;;;5.21;100.00;94330.94;5010228;28;24416;-74
2022/04/08 09:04:15;;;;;;;2.88;0.95;;;;;;;5.33;100.00;94330.97;5011308;28;24411;-75
2022/04/08 09:06:42;;;;;;;0.90;0.60;;;;;;;5.49;100.00;94320.53;5011091;28;24436;-74
2022/04/08 09:09:11;;;;;;;1.40;0.70;;;;;;;5.51;100.00;94313.53;5011541;28;24436;-73
2022/04/08 09:11:38;;;;;;;1.15;0.50;;;;;;;5.52;100.00;94310.03;5011206;28;24504;-75
2022/04/08 09:14:06;;;;;;;1.13;0.47;;;;;;;5.59;100.00;94300.19;5011294;28;24595;-74
2022/04/08 09:16:37;;;;;;;0.95;0.40;;;;;;;5.52;100.00;94291.22;5011321;28;24424;-75
2022/04/08 09:19:11;;;;;;;0.45;0.30;;;;;;;5.29;100.00;94277.34;5011385;28;24431;-75
2022/04/08 09:21:37;;;;;;;1.17;0.40;;;;;;;5.40;100.00;94274.09;5011089;28;24440;-74
2022/04/08 09:24:07;;;;;;;0.85;0.40;;;;;;;5.43;100.00;94266.19;5011115;28;24412;-74
2022/04/08 09:26:38;;;;;;;0.82;0.38;;;;;;;5.55;100.00;94258.47;5010479;28;24519;-74
2022/04/08 09:29:05;;;;;;;0.55;0.25;;;;;;;5.61;100.00;94253.88;5010914;28;24814;-74
2022/04/08 09:31:33;;;;;;;5.32;0.73;;;;;;;5.78;100.00;94262.06;5011020;28;24547;-75
2022/04/08 09:33:59;;;;;;;0.70;0.30;;;;;;;5.77;100.00;94252.69;5010888;28;24515;-74
2022/04/08 09:36:30;;;;;;;0.63;0.38;;;;;;;5.69;100.00;94241.31;5011024;28;24821;-74
2022/04/08 09:38:57;;;;;;;1.00;0.50;;;;;;;5.72;100.00;94235.97;5010939;28;24432;-74
2022/04/08 09:41:38;;;;;;;0.73;0.45;;;;;;;5.67;100.00;94231.13;5010557;28;24416;-74
2022/04/08 09:44:07;;;;;;;0.70;0.30;;;;;;;5.58;100.00;94224.06;5010625;28;24539;-74
2022/04/08 09:46:33;;;;;;;0.40;0.30;;;;;;;5.59;100.00;94213.69;5014774;28;24483;-74
2022/04/08 09:49:00;;;;;;;0.25;0.20;;;;;;;5.69;100.00;94193.34;5014608;28;24419;-74
2022/04/08 09:51:28;;;;;;;0.75;0.20;;;;;;;5.67;100.00;94196.91;5014592;28;24432;-75
2022/04/08 09:53:56;;;;;;;0.50;0.30;;;;;;;5.64;100.00;94187.69;5014411;28;24861;-75
2022/04/08 09:56:24;;;;;;;0.45;0.20;;;;;;;5.63;100.00;94185.22;5014840;28;24514;-74
2022/04/08 09:58:59;;;;;;;0.60;0.30;;;;;;;5.62;100.00;94183.59;5014596;28;24428;-74
2022/04/08 10:01:28;;;;;;;0.52;0.32;;;;;;;5.69;100.00;94182.25;5014423;28;24977;-74
2022/04/08 10:03:56;;;;;;;1.10;0.40;;;;;;;5.68;100.00;94167.75;5014296;28;24436;-75
2022/04/08 10:06:23;;;;;;;0.52;0.30;;;;;;;5.67;100.00;94166.91;5014085;28;24448;-74
2022/04/08 10:08:50;;;;;;;1.40;0.30;;;;;;;5.50;100.00;94162.16;5014268;28;24440;-74
2022/04/08 10:11:25;;;;;;;0.30;0.20;;;;;;;5.57;100.00;94158.22;5014211;28;24531;-74
2022/04/08 10:14:00;;;;;;;0.40;0.20;;;;;;;5.58;100.00;94160.69;4994984;28;24474;-75
2022/04/08 10:16:29;;;;;;;0.30;0.20;;;;;;;5.26;100.00;94146.66;4994830;28;25032;-74
2022/04/08 10:18:58;;;;;;;0.45;0.35;;;;;;;5.26;100.00;94139.75;5006799;28;24443;-74
2022/04/08 10:21:24;;;;;;;1.23;0.50;;;;;;;5.18;100.00;94141.22;5013836;28;24522;-74
2022/04/08 10:23:53;;;;;;;0.50;0.30;;;;;;;5.20;100.00;94131.69;4994529;28;24425;-74
2022/04/08 10:26:22;;;;;;;0.50;0.30;;;;;;;5.34;100.00;94123.88;5009682;28;24444;-75
2022/04/08 10:28:49;;;;;;;1.40;0.28;;;;;;;5.27;100.00;94110.63;5014215;28;24424;-74
2022/04/08 10:31:17;;;;;;;0.65;0.30;;;;;;;5.33;100.00;94109.38;5013780;28;25012;-75
2022/04/08 10:33:50;;;;;;;0.45;0.20;;;;;;;5.46;100.00;94110.19;5014212;28;24420;-74
2022/04/08 10:36:16;;;;;;;0.45;0.25;;;;;;;5.59;100.00;94110.13;5014016;28;24522;-75
2022/04/08 10:38:43;;;;;;;0.38;0.25;;;;;;;5.68;100.00;94104.38;5013727;28;25020;-74
2022/04/08 10:41:11;;;;;;;1.50;1.10;;;;;;;5.54;100.00;94102.75;5013851;28;24447;-73
2022/04/08 10:43:44;;;;;;;4.18;3.60;;;;;;;5.48;100.00;94100.59;5013990;28;24482;-74
2022/04/08 10:46:12;;;;;;;0.70;0.40;;;;;;;5.10;100.00;94093.81;5013469;28;24435;-74
2022/04/08 10:48:39;;;;;;;0.45;0.30;;;;;;;4.90;100.00;94093.53;5013454;28;24428;-74
2022/04/08 10:51:11;;;;;;;1.35;0.90;;;;;;;4.97;100.00;94087.03;5013877;28;24443;-73
2022/04/08 10:53:41;;;;;;;1.90;1.10;;;;;;;5.31;100.00;94068.41;5013498;28;24961;-73
2022/04/08 10:56:10;;;;;;;3.47;2.40;;;;;;;5.27;100.00;94064.44;5012141;28;24468;-74
2022/04/08 10:58:42;;;;;;;1.20;0.75;;;;;;;5.22;100.00;94063.91;5013688;28;24523;-74
2022/04/08 11:01:16;;;;;;;0.47;0.30;;;;;;;5.58;100.00;94039.16;5013338;28;24447;-75
2022/04/08 11:03:46;;;;;;;0.60;0.20;;;;;;;5.35;100.00;94043.34;5013596;28;24447;-75
2022/04/08 11:06:15;;;;;;;1.15;0.73;;;;;;;5.18;100.00;94056.53;5011774;28;24448;-74
2022/04/08 11:08:43;;;;;;;1.02;0.60;;;;;;;5.87;100.00;94031.94;5013073;28;24443;-75
2022/04/08 11:11:10;;;;;;;1.17;0.70;;;;;;;6.06;100.00;94009.16;5012566;28;25064;-75
2022/04/08 11:13:36;;;;;;;0.93;0.30;;;;;;;5.91;100.00;94027.41;5013113;28;24810;-75
2022/04/08 11:16:04;;;;;;;1.05;0.43;;;;;;;5.43;100.00;94015.38;5013005;28;24882;-75
2022/04/08 11:18:31;;;;;;;1.20;0.40;;;;;;;5.32;100.00;94011.00;5013217;28;24996;-75
2022/04/08 11:20:58;;;;;;;0.45;0.30;;;;;;;5.58;100.00;94003.22;5014635;28;24416;-75
2022/04/08 11:23:30;;;;;;;0.60;0.30;;;;;;;6.00;100.00;93981.31;5013587;28;24774;-75
2022/04/08 11:25:57;;;;;;;0.70;0.30;;;;;;;6.00;100.00;93981.31;5014013;28;24421;-75
2022/04/08 11:28:24;;;;;;;0.60;0.47;;;;;;;5.75;100.00;93977.16;5013534;28;24444;-75
2022/04/08 11:30:56;;;;;;;0.70;0.45;;;;;;;5.75;100.00;93977.16;5012795;28;24425;-75
2022/04/08 11:33:23;;;;;;;1.25;0.73;;;;;;;5.87;100.00;93972.03;5013887;28;24503;-75
2022/04/08 11:35:56;;;;;;;0.68;0.57;;;;;;;5.75;100.00;93960.91;5013181;28;24468;-75